sensor_id;sensor_type;location;lat;lon;timestamp;temperature;humidity
7399;DHT22;3740;50.700;7.184;2023-07-20T00:01:24;20.00;99.90
7399;DHT22;3740;50.700;7.184;2023-07-20T00:03:49;20.00;99.90
7399;DHT22;3740;50.700;7.184;2023-07-20T00:06:21;19.90;99.90
7399;DHT22;3740;50.700;7.184;2023-07-20T00:08:46;19.90;99.90
7399;DHT22;3740;50.700;7.184;2023-07-20T00:11:12;19.90;99.90
7399;DHT22;3740;50.700;7.184;2023-07-20T00:13:39;19.60;99.90
7399;DHT22;3740;50.700;7.184;2023-07-20T00:16:05;19.40;99.90
7399;DHT22;3740;50.700;7.184;2023-07-20T00:18:30;19.10;99.90
7399;DHT22;3740;50.700;7.184;2023-07-20T00:20:56;19.00;99.90
7399;DHT22;3740;50.700;7.184;2023-07-20T00:23:21;19.00;99.90
7399;DHT22;3740;50.700;7.184;2023-07-20T00:25:48;18.90;99.90
7399;DHT22;3740;50.700;7.184;2023-07-20T00:28:14;18.80;99.90
7399;DHT22;3740;50.700;7.184;2023-07-20T00:30:40;18.60;99.90
7399;DHT22;3740;50.700;7.184;2023-07-20T00:33:09;18.50;99.90
7399;DHT22;3740;50.700;7.184;2023-07-20T00:35:35;18.40;99.90
7399;DHT22;3740;50.700;7.184;2023-07-20T00:38:00;18.40;99.90
7399;DHT22;3740;50.700;7.184;2023-07-20T00:40:26;18.30;99.90
7399;DHT22;3740;50.700;7.184;2023-07-20T00:42:52;18.30;99.90
7399;DHT22;3740;50.700;7.184;2023-07-20T00:45:17;18.30;99.90
7399;DHT22;3740;50.700;7.184;2023-07-20T00:47:43;18.20;99.90
7399;DHT22;3740;50.700;7.184;2023-07-20T00:50:09;18.30;99.90
7399;DHT22;3740;50.700;7.184;2023-07-20T00:52:37;18.30;99.90
7399;DHT22;3740;50.700;7.184;2023-07-20T00:55:05;18.40;99.90
7399;DHT22;3740;50.700;7.184;2023-07-20T00:57:31;18.40;99.90
7399;DHT22;3740;50.700;7.184;2023-07-20T00:59:57;18.40;99.90
7399;DHT22;3740;50.700;7.184;2023-07-20T01:02:23;18.40;99.90
7399;DHT22;3740;50.700;7.184;2023-07-20T01:04:49;18.40;99.90
7399;DHT22;3740;50.700;7.184;2023-07-20T01:07:24;18.40;99.90
7399;DHT22;3740;50.700;7.184;2023-07-20T01:10:03;18.40;99.90
7399;DHT22;3740;50.700;7.184;2023-07-20T01:12:42;18.30;99.90
7399;DHT22;3740;50.700;7.184;2023-07-20T01:15:08;18.30;99.90
7399;DHT22;3740;50.700;7.184;2023-07-20T01:17:35;18.20;99.90
7399;DHT22;3740;50.700;7.184;2023-07-20T01:20:00;18.20;99.90
7399;DHT22;3740;50.700;7.184;2023-07-20T01:22:47;18.20;99.90
7399;DHT22;3740;50.700;7.184;2023-07-20T01:33:15;18.20;99.90
7399;DHT22;3740;50.700;7.184;2023-07-20T01:35:43;18.20;99.90
7399;DHT22;3740;50.700;7.184;2023-07-20T01:38:11;18.20;99.90
7399;DHT22;3740;50.700;7.184;2023-07-20T01:40:38;18.20;99.90
7399;DHT22;3740;50.700;7.184;2023-07-20T01:43:04;18.20;99.90
7399;DHT22;3740;50.700;7.184;2023-07-20T01:45:30;18.20;99.90
7399;DHT22;3740;50.700;7.184;2023-07-20T01:47:55;18.20;99.90
7399;DHT22;3740;50.700;7.184;2023-07-20T01:50:21;18.20;99.90
7399;DHT22;3740;50.700;7.184;2023-07-20T01:52:46;18.20;99.90
7399;DHT22;3740;50.700;7.184;2023-07-20T01:55:12;18.20;99.90
7399;DHT22;3740;50.700;7.184;2023-07-20T01:57:37;18.20;99.90
7399;DHT22;3740;50.700;7.184;2023-07-20T02:00:03;18.20;99.90
7399;DHT22;3740;50.700;7.184;2023-07-20T02:02:29;18.10;99.90
7399;DHT22;3740;50.700;7.184;2023-07-20T02:04:55;18.10;99.90
7399;DHT22;3740;50.700;7.184;2023-07-20T02:07:20;18.10;99.90
7399;DHT22;3740;50.700;7.184;2023-07-20T02:09:46;18.10;99.90
7399;DHT22;3740;50.700;7.184;2023-07-20T02:12:11;18.00;99.90
7399;DHT22;3740;50.700;7.184;2023-07-20T02:14:37;18.00;99.90
7399;DHT22;3740;50.700;7.184;2023-07-20T02:17:02;18.00;99.90
7399;DHT22;3740;50.700;7.184;2023-07-20T02:19:29;18.00;99.90
7399;DHT22;3740;50.700;7.184;2023-07-20T02:21:55;18.00;99.90
7399;DHT22;3740;50.700;7.184;2023-07-20T02:24:20;18.00;99.90
7399;DHT22;3740;50.700;7.184;2023-07-20T02:26:46;18.00;99.90
7399;DHT22;3740;50.700;7.184;2023-07-20T02:29:11;18.00;99.90
7399;DHT22;3740;50.700;7.184;2023-07-20T02:31:37;18.00;99.90
7399;DHT22;3740;50.700;7.184;2023-07-20T02:34:07;17.90;99.90
7399;DHT22;3740;50.700;7.184;2023-07-20T02:36:34;17.90;99.90
7399;DHT22;3740;50.700;7.184;2023-07-20T02:39:00;17.90;99.90
7399;DHT22;3740;50.700;7.184;2023-07-20T02:41:30;17.90;99.90
7399;DHT22;3740;50.700;7.184;2023-07-20T02:43:55;17.80;99.90
7399;DHT22;3740;50.700;7.184;2023-07-20T02:46:22;17.80;99.90
7399;DHT22;3740;50.700;7.184;2023-07-20T02:48:47;17.80;99.90
7399;DHT22;3740;50.700;7.184;2023-07-20T02:51:13;17.70;99.90
7399;DHT22;3740;50.700;7.184;2023-07-20T02:53:38;17.80;99.90
7399;DHT22;3740;50.700;7.184;2023-07-20T02:56:04;17.70;99.90
7399;DHT22;3740;50.700;7.184;2023-07-20T02:58:29;17.70;99.90
7399;DHT22;3740;50.700;7.184;2023-07-20T03:00:55;17.70;99.90
7399;DHT22;3740;50.700;7.184;2023-07-20T03:03:20;17.60;99.90
7399;DHT22;3740;50.700;7.184;2023-07-20T03:05:46;17.60;99.90
7399;DHT22;3740;50.700;7.184;2023-07-20T03:08:11;17.50;99.90
7399;DHT22;3740;50.700;7.184;2023-07-20T03:10:40;17.50;99.90
7399;DHT22;3740;50.700;7.184;2023-07-20T03:13:06;17.50;99.90
7399;DHT22;3740;50.700;7.184;2023-07-20T03:15:32;17.40;99.90
7399;DHT22;3740;50.700;7.184;2023-07-20T03:17:58;17.40;99.90
7399;DHT22;3740;50.700;7.184;2023-07-20T03:20:24;17.40;99.90
7399;DHT22;3740;50.700;7.184;2023-07-20T03:22:49;17.30;99.90
7399;DHT22;3740;50.700;7.184;2023-07-20T03:25:15;17.30;99.90
7399;DHT22;3740;50.700;7.184;2023-07-20T03:27:41;17.30;99.90
7399;DHT22;3740;50.700;7.184;2023-07-20T03:30:07;17.30;99.90
7399;DHT22;3740;50.700;7.184;2023-07-20T03:32:35;17.20;99.90
7399;DHT22;3740;50.700;7.184;2023-07-20T03:35:01;17.20;99.90
7399;DHT22;3740;50.700;7.184;2023-07-20T03:37:26;17.20;99.90
7399;DHT22;3740;50.700;7.184;2023-07-20T03:39:52;17.20;99.90
7399;DHT22;3740;50.700;7.184;2023-07-20T03:42:17;17.20;99.90
7399;DHT22;3740;50.700;7.184;2023-07-20T03:44:43;17.20;99.90
7399;DHT22;3740;50.700;7.184;2023-07-20T03:47:09;17.20;99.90
7399;DHT22;3740;50.700;7.184;2023-07-20T03:49:34;17.20;99.90
7399;DHT22;3740;50.700;7.184;2023-07-20T03:52:01;17.30;99.90
7399;DHT22;3740;50.700;7.184;2023-07-20T03:54:29;17.30;99.90
7399;DHT22;3740;50.700;7.184;2023-07-20T03:56:54;17.30;99.90
7399;DHT22;3740;50.700;7.184;2023-07-20T03:59:20;17.30;99.90
7399;DHT22;3740;50.700;7.184;2023-07-20T04:01:46;17.30;99.90
7399;DHT22;3740;50.700;7.184;2023-07-20T04:04:11;17.20;99.90
7399;DHT22;3740;50.700;7.184;2023-07-20T04:06:37;17.30;99.90
7399;DHT22;3740;50.700;7.184;2023-07-20T04:09:03;17.30;99.90
7399;DHT22;3740;50.700;7.184;2023-07-20T04:11:30;17.30;99.90
7399;DHT22;3740;50.700;7.184;2023-07-20T04:13:56;17.30;99.90
7399;DHT22;3740;50.700;7.184;2023-07-20T04:16:21;17.30;99.90
7399;DHT22;3740;50.700;7.184;2023-07-20T04:18:47;17.30;99.90
7399;DHT22;3740;50.700;7.184;2023-07-20T04:21:12;17.30;99.90
7399;DHT22;3740;50.700;7.184;2023-07-20T04:23:38;17.30;99.90
7399;DHT22;3740;50.700;7.184;2023-07-20T04:26:04;17.30;99.90
7399;DHT22;3740;50.700;7.184;2023-07-20T04:28:29;17.30;99.90
7399;DHT22;3740;50.700;7.184;2023-07-20T04:31:12;17.40;99.90
7399;DHT22;3740;50.700;7.184;2023-07-20T04:33:38;17.40;99.90
7399;DHT22;3740;50.700;7.184;2023-07-20T04:36:04;17.40;99.90
7399;DHT22;3740;50.700;7.184;2023-07-20T04:38:30;17.40;99.90
7399;DHT22;3740;50.700;7.184;2023-07-20T04:40:55;17.50;99.90
7399;DHT22;3740;50.700;7.184;2023-07-20T04:43:21;17.50;99.90
7399;DHT22;3740;50.700;7.184;2023-07-20T04:45:47;17.60;99.90
7399;DHT22;3740;50.700;7.184;2023-07-20T04:48:14;17.60;99.90
7399;DHT22;3740;50.700;7.184;2023-07-20T04:50:41;17.70;99.90
7399;DHT22;3740;50.700;7.184;2023-07-20T04:53:08;17.80;99.90
7399;DHT22;3740;50.700;7.184;2023-07-20T04:55:35;17.70;99.90
7399;DHT22;3740;50.700;7.184;2023-07-20T04:58:02;17.80;99.90
7399;DHT22;3740;50.700;7.184;2023-07-20T05:00:37;17.80;99.90
7399;DHT22;3740;50.700;7.184;2023-07-20T05:03:03;17.80;99.90
7399;DHT22;3740;50.700;7.184;2023-07-20T05:05:30;17.80;99.90
7399;DHT22;3740;50.700;7.184;2023-07-20T05:07:56;17.80;99.90
7399;DHT22;3740;50.700;7.184;2023-07-20T05:10:23;17.80;99.90
7399;DHT22;3740;50.700;7.184;2023-07-20T05:12:49;17.80;99.90
7399;DHT22;3740;50.700;7.184;2023-07-20T05:15:15;17.80;99.90
7399;DHT22;3740;50.700;7.184;2023-07-20T05:17:43;17.80;99.90
7399;DHT22;3740;50.700;7.184;2023-07-20T05:20:09;17.70;99.90
7399;DHT22;3740;50.700;7.184;2023-07-20T05:22:38;17.70;99.90
7399;DHT22;3740;50.700;7.184;2023-07-20T05:25:08;17.70;99.90
7399;DHT22;3740;50.700;7.184;2023-07-20T05:27:35;17.80;99.90
7399;DHT22;3740;50.700;7.184;2023-07-20T05:30:02;17.80;99.90
7399;DHT22;3740;50.700;7.184;2023-07-20T05:32:28;17.90;99.90
7399;DHT22;3740;50.700;7.184;2023-07-20T05:34:54;17.90;99.90
7399;DHT22;3740;50.700;7.184;2023-07-20T05:37:20;18.00;99.90
7399;DHT22;3740;50.700;7.184;2023-07-20T05:39:45;18.00;99.90
7399;DHT22;3740;50.700;7.184;2023-07-20T05:42:11;18.00;99.90
7399;DHT22;3740;50.700;7.184;2023-07-20T05:44:37;18.10;99.90
7399;DHT22;3740;50.700;7.184;2023-07-20T05:47:06;18.00;99.90
7399;DHT22;3740;50.700;7.184;2023-07-20T05:49:31;18.00;99.90
7399;DHT22;3740;50.700;7.184;2023-07-20T05:51:57;18.00;99.90
7399;DHT22;3740;50.700;7.184;2023-07-20T05:54:26;17.90;99.90
7399;DHT22;3740;50.700;7.184;2023-07-20T05:56:52;17.90;99.90
7399;DHT22;3740;50.700;7.184;2023-07-20T05:59:18;18.00;99.90
7399;DHT22;3740;50.700;7.184;2023-07-20T06:01:45;18.00;99.90
7399;DHT22;3740;50.700;7.184;2023-07-20T06:04:10;18.10;99.90
7399;DHT22;3740;50.700;7.184;2023-07-20T06:06:36;18.10;99.90
7399;DHT22;3740;50.700;7.184;2023-07-20T06:09:02;18.00;99.90
7399;DHT22;3740;50.700;7.184;2023-07-20T06:11:33;18.20;99.90
7399;DHT22;3740;50.700;7.184;2023-07-20T06:13:59;18.30;99.90
7399;DHT22;3740;50.700;7.184;2023-07-20T06:16:25;18.40;99.90
7399;DHT22;3740;50.700;7.184;2023-07-20T06:18:50;18.30;99.90
7399;DHT22;3740;50.700;7.184;2023-07-20T06:21:16;18.30;99.90
7399;DHT22;3740;50.700;7.184;2023-07-20T06:23:41;18.20;99.90
7399;DHT22;3740;50.700;7.184;2023-07-20T06:26:07;18.10;99.90
7399;DHT22;3740;50.700;7.184;2023-07-20T06:28:33;18.10;99.90
7399;DHT22;3740;50.700;7.184;2023-07-20T06:31:00;18.00;99.90
7399;DHT22;3740;50.700;7.184;2023-07-20T06:33:26;18.00;99.90
7399;DHT22;3740;50.700;7.184;2023-07-20T06:35:51;18.00;99.90
7399;DHT22;3740;50.700;7.184;2023-07-20T06:38:18;18.00;99.90
7399;DHT22;3740;50.700;7.184;2023-07-20T06:40:45;18.10;99.90
7399;DHT22;3740;50.700;7.184;2023-07-20T06:43:11;18.10;99.90
7399;DHT22;3740;50.700;7.184;2023-07-20T06:45:36;18.20;99.90
7399;DHT22;3740;50.700;7.184;2023-07-20T06:48:02;18.20;99.90
7399;DHT22;3740;50.700;7.184;2023-07-20T06:50:28;18.30;99.90
7399;DHT22;3740;50.700;7.184;2023-07-20T06:52:54;18.30;99.90
7399;DHT22;3740;50.700;7.184;2023-07-20T06:55:19;18.40;99.90
7399;DHT22;3740;50.700;7.184;2023-07-20T06:57:45;18.50;99.90
7399;DHT22;3740;50.700;7.184;2023-07-20T07:00:11;18.50;99.90
7399;DHT22;3740;50.700;7.184;2023-07-20T07:02:38;18.40;99.90
7399;DHT22;3740;50.700;7.184;2023-07-20T07:05:03;18.50;99.90
7399;DHT22;3740;50.700;7.184;2023-07-20T07:07:29;18.50;99.90
7399;DHT22;3740;50.700;7.184;2023-07-20T07:09:55;18.40;99.90
7399;DHT22;3740;50.700;7.184;2023-07-20T07:12:20;18.50;99.90
7399;DHT22;3740;50.700;7.184;2023-07-20T07:14:46;18.60;99.90
7399;DHT22;3740;50.700;7.184;2023-07-20T07:17:11;18.50;99.90
7399;DHT22;3740;50.700;7.184;2023-07-20T07:19:37;18.50;99.90
7399;DHT22;3740;50.700;7.184;2023-07-20T07:22:04;18.50;99.90
7399;DHT22;3740;50.700;7.184;2023-07-20T07:24:29;18.70;99.90
7399;DHT22;3740;50.700;7.184;2023-07-20T07:26:59;18.70;99.90
7399;DHT22;3740;50.700;7.184;2023-07-20T07:29:25;18.90;99.90
7399;DHT22;3740;50.700;7.184;2023-07-20T07:31:51;18.90;99.90
7399;DHT22;3740;50.700;7.184;2023-07-20T07:34:17;18.80;99.90
7399;DHT22;3740;50.700;7.184;2023-07-20T07:36:43;18.80;99.90
7399;DHT22;3740;50.700;7.184;2023-07-20T07:39:09;18.80;99.90
7399;DHT22;3740;50.700;7.184;2023-07-20T07:41:35;18.80;99.90
7399;DHT22;3740;50.700;7.184;2023-07-20T07:44:00;18.90;99.90
7399;DHT22;3740;50.700;7.184;2023-07-20T07:46:26;18.90;99.90
7399;DHT22;3740;50.700;7.184;2023-07-20T07:48:51;19.00;99.90
7399;DHT22;3740;50.700;7.184;2023-07-20T07:51:17;19.10;99.90
7399;DHT22;3740;50.700;7.184;2023-07-20T07:53:43;19.10;99.90
7399;DHT22;3740;50.700;7.184;2023-07-20T07:56:09;19.10;99.90
7399;DHT22;3740;50.700;7.184;2023-07-20T07:58:34;19.10;99.90
7399;DHT22;3740;50.700;7.184;2023-07-20T08:01:00;19.10;99.90
7399;DHT22;3740;50.700;7.184;2023-07-20T08:03:26;19.10;99.90
7399;DHT22;3740;50.700;7.184;2023-07-20T08:05:54;19.10;99.90
7399;DHT22;3740;50.700;7.184;2023-07-20T08:08:21;19.40;99.90
7399;DHT22;3740;50.700;7.184;2023-07-20T08:10:46;19.50;99.90
7399;DHT22;3740;50.700;7.184;2023-07-20T08:13:13;19.50;99.90
7399;DHT22;3740;50.700;7.184;2023-07-20T08:15:39;19.50;99.90
7399;DHT22;3740;50.700;7.184;2023-07-20T08:18:04;19.50;99.90
7399;DHT22;3740;50.700;7.184;2023-07-20T08:20:31;19.40;99.90
7399;DHT22;3740;50.700;7.184;2023-07-20T08:22:57;19.40;99.90
7399;DHT22;3740;50.700;7.184;2023-07-20T08:25:25;19.30;99.90
7399;DHT22;3740;50.700;7.184;2023-07-20T08:27:50;19.20;99.90
7399;DHT22;3740;50.700;7.184;2023-07-20T08:30:16;19.20;99.90
7399;DHT22;3740;50.700;7.184;2023-07-20T08:32:42;19.20;99.90
7399;DHT22;3740;50.700;7.184;2023-07-20T08:35:08;19.20;99.90
7399;DHT22;3740;50.700;7.184;2023-07-20T08:37:34;19.20;99.90
7399;DHT22;3740;50.700;7.184;2023-07-20T08:39:59;19.30;99.90
7399;DHT22;3740;50.700;7.184;2023-07-20T08:42:25;19.30;99.90
7399;DHT22;3740;50.700;7.184;2023-07-20T08:44:52;19.30;99.90
7399;DHT22;3740;50.700;7.184;2023-07-20T08:47:18;19.30;99.90
7399;DHT22;3740;50.700;7.184;2023-07-20T08:49:48;19.40;99.90
7399;DHT22;3740;50.700;7.184;2023-07-20T08:52:14;19.40;99.90
7399;DHT22;3740;50.700;7.184;2023-07-20T08:54:39;19.50;99.90
7399;DHT22;3740;50.700;7.184;2023-07-20T08:57:06;19.70;99.90
7399;DHT22;3740;50.700;7.184;2023-07-20T08:59:34;19.70;99.90
7399;DHT22;3740;50.700;7.184;2023-07-20T09:02:02;19.80;99.90
7399;DHT22;3740;50.700;7.184;2023-07-20T09:04:29;20.00;99.90
7399;DHT22;3740;50.700;7.184;2023-07-20T09:06:57;20.10;99.90
7399;DHT22;3740;50.700;7.184;2023-07-20T09:09:22;20.20;99.90
7399;DHT22;3740;50.700;7.184;2023-07-20T09:11:49;20.30;99.90
7399;DHT22;3740;50.700;7.184;2023-07-20T09:14:15;20.40;99.90
7399;DHT22;3740;50.700;7.184;2023-07-20T09:16:48;20.40;99.90
7399;DHT22;3740;50.700;7.184;2023-07-20T09:19:17;20.20;99.90
7399;DHT22;3740;50.700;7.184;2023-07-20T09:21:47;20.20;99.90
7399;DHT22;3740;50.700;7.184;2023-07-20T09:24:13;20.30;99.90
7399;DHT22;3740;50.700;7.184;2023-07-20T09:26:42;20.40;99.90
7399;DHT22;3740;50.700;7.184;2023-07-20T09:29:09;20.40;99.90
7399;DHT22;3740;50.700;7.184;2023-07-20T09:31:35;20.50;99.90
7399;DHT22;3740;50.700;7.184;2023-07-20T09:34:01;20.50;99.90
7399;DHT22;3740;50.700;7.184;2023-07-20T09:36:27;20.70;99.90
7399;DHT22;3740;50.700;7.184;2023-07-20T09:38:53;20.90;99.90
7399;DHT22;3740;50.700;7.184;2023-07-20T09:41:20;21.00;99.90
7399;DHT22;3740;50.700;7.184;2023-07-20T09:43:46;21.20;99.90
7399;DHT22;3740;50.700;7.184;2023-07-20T09:46:11;21.10;99.90
7399;DHT22;3740;50.700;7.184;2023-07-20T09:48:37;21.00;99.90
7399;DHT22;3740;50.700;7.184;2023-07-20T09:51:03;21.20;99.90
7399;DHT22;3740;50.700;7.184;2023-07-20T09:53:32;21.20;99.90
7399;DHT22;3740;50.700;7.184;2023-07-20T09:55:59;21.10;99.90
7399;DHT22;3740;50.700;7.184;2023-07-20T09:58:26;21.20;99.90
7399;DHT22;3740;50.700;7.184;2023-07-20T10:00:54;21.30;99.90
7399;DHT22;3740;50.700;7.184;2023-07-20T10:03:25;21.50;99.90
7399;DHT22;3740;50.700;7.184;2023-07-20T10:05:56;21.70;99.90
7399;DHT22;3740;50.700;7.184;2023-07-20T10:08:24;21.60;99.90
7399;DHT22;3740;50.700;7.184;2023-07-20T10:10:50;21.40;99.90
7399;DHT22;3740;50.700;7.184;2023-07-20T10:13:26;21.30;99.90
7399;DHT22;3740;50.700;7.184;2023-07-20T10:16:11;21.40;99.90
7399;DHT22;3740;50.700;7.184;2023-07-20T10:19:05;21.50;99.90
7399;DHT22;3740;50.700;7.184;2023-07-20T10:21:35;21.70;99.90
7399;DHT22;3740;50.700;7.184;2023-07-20T10:24:03;21.80;99.90
7399;DHT22;3740;50.700;7.184;2023-07-20T10:26:29;22.00;99.90
7399;DHT22;3740;50.700;7.184;2023-07-20T10:28:55;21.90;99.90
7399;DHT22;3740;50.700;7.184;2023-07-20T10:31:23;22.00;99.90
7399;DHT22;3740;50.700;7.184;2023-07-20T10:33:49;21.80;99.90
7399;DHT22;3740;50.700;7.184;2023-07-20T10:36:16;21.70;99.90
7399;DHT22;3740;50.700;7.184;2023-07-20T10:38:51;21.90;99.90
7399;DHT22;3740;50.700;7.184;2023-07-20T10:41:22;21.90;99.90
7399;DHT22;3740;50.700;7.184;2023-07-20T10:43:58;21.60;99.90
7399;DHT22;3740;50.700;7.184;2023-07-20T10:49:07;21.60;99.90
7399;DHT22;3740;50.700;7.184;2023-07-20T10:51:56;21.80;99.90
7399;DHT22;3740;50.700;7.184;2023-07-20T10:54:33;22.60;99.90
7399;DHT22;3740;50.700;7.184;2023-07-20T10:57:22;22.60;99.90
7399;DHT22;3740;50.700;7.184;2023-07-20T10:59:48;22.50;99.90
7399;DHT22;3740;50.700;7.184;2023-07-20T11:02:18;22.70;99.90
7399;DHT22;3740;50.700;7.184;2023-07-20T11:04:46;22.60;99.90
7399;DHT22;3740;50.700;7.184;2023-07-20T11:07:16;22.50;99.90
7399;DHT22;3740;50.700;7.184;2023-07-20T11:09:42;22.60;99.90
7399;DHT22;3740;50.700;7.184;2023-07-20T11:12:12;22.80;99.90
7399;DHT22;3740;50.700;7.184;2023-07-20T11:14:56;22.60;99.90
7399;DHT22;3740;50.700;7.184;2023-07-20T11:17:30;22.40;99.90
7399;DHT22;3740;50.700;7.184;2023-07-20T11:19:56;22.20;99.90
7399;DHT22;3740;50.700;7.184;2023-07-20T11:22:22;22.10;99.90
7399;DHT22;3740;50.700;7.184;2023-07-20T11:24:48;22.20;99.90
7399;DHT22;3740;50.700;7.184;2023-07-20T11:27:17;22.20;99.90
7399;DHT22;3740;50.700;7.184;2023-07-20T11:29:47;22.20;99.90
7399;DHT22;3740;50.700;7.184;2023-07-20T11:32:20;22.50;99.90
7399;DHT22;3740;50.700;7.184;2023-07-20T11:34:47;24.30;99.90
7399;DHT22;3740;50.700;7.184;2023-07-20T11:37:13;26.20;99.30
7399;DHT22;3740;50.700;7.184;2023-07-20T11:39:39;27.90;94.70
7399;DHT22;3740;50.700;7.184;2023-07-20T11:42:05;29.10;86.30
7399;DHT22;3740;50.700;7.184;2023-07-20T11:44:33;29.70;82.00
7399;DHT22;3740;50.700;7.184;2023-07-20T11:47:11;30.30;80.30
7399;DHT22;3740;50.700;7.184;2023-07-20T11:49:42;30.90;76.40
7399;DHT22;3740;50.700;7.184;2023-07-20T11:52:11;30.10;74.50
7399;DHT22;3740;50.700;7.184;2023-07-20T11:54:39;28.70;79.60
7399;DHT22;3740;50.700;7.184;2023-07-20T11:57:05;28.20;85.00
7399;DHT22;3740;50.700;7.184;2023-07-20T11:59:32;27.50;83.10
7399;DHT22;3740;50.700;7.184;2023-07-20T12:02:03;26.40;90.00
7399;DHT22;3740;50.700;7.184;2023-07-20T12:04:34;25.60;90.70
7399;DHT22;3740;50.700;7.184;2023-07-20T12:06:59;24.70;92.90
7399;DHT22;3740;50.700;7.184;2023-07-20T12:09:25;24.20;95.10
7399;DHT22;3740;50.700;7.184;2023-07-20T12:11:51;24.20;95.50
7399;DHT22;3740;50.700;7.184;2023-07-20T12:14:17;24.60;94.10
7399;DHT22;3740;50.700;7.184;2023-07-20T12:16:43;25.60;93.60
7399;DHT22;3740;50.700;7.184;2023-07-20T12:19:11;25.90;91.90
7399;DHT22;3740;50.700;7.184;2023-07-20T12:21:39;26.40;90.80
7399;DHT22;3740;50.700;7.184;2023-07-20T12:24:05;26.00;91.60
7399;DHT22;3740;50.700;7.184;2023-07-20T12:26:32;26.20;92.20
7399;DHT22;3740;50.700;7.184;2023-07-20T12:28:59;26.20;93.70
7399;DHT22;3740;50.700;7.184;2023-07-20T12:31:26;27.10;92.50
7399;DHT22;3740;50.700;7.184;2023-07-20T12:33:52;27.00;90.10
7399;DHT22;3740;50.700;7.184;2023-07-20T12:36:18;27.90;89.10
7399;DHT22;3740;50.700;7.184;2023-07-20T12:38:45;29.70;82.90
7399;DHT22;3740;50.700;7.184;2023-07-20T12:41:12;31.10;76.20
7399;DHT22;3740;50.700;7.184;2023-07-20T12:43:44;31.80;72.80
7399;DHT22;3740;50.700;7.184;2023-07-20T12:46:11;32.00;67.90
7399;DHT22;3740;50.700;7.184;2023-07-20T12:48:40;30.30;71.30
7399;DHT22;3740;50.700;7.184;2023-07-20T12:51:08;30.90;67.70
7399;DHT22;3740;50.700;7.184;2023-07-20T12:53:34;30.80;67.70
7399;DHT22;3740;50.700;7.184;2023-07-20T12:56:00;31.30;65.30
7399;DHT22;3740;50.700;7.184;2023-07-20T12:58:26;29.50;67.90
7399;DHT22;3740;50.700;7.184;2023-07-20T13:00:52;29.50;71.00
7399;DHT22;3740;50.700;7.184;2023-07-20T13:03:18;30.50;68.80
7399;DHT22;3740;50.700;7.184;2023-07-20T13:05:48;30.10;67.00
7399;DHT22;3740;50.700;7.184;2023-07-20T13:08:14;29.70;67.00
7399;DHT22;3740;50.700;7.184;2023-07-20T13:10:40;30.20;69.20
7399;DHT22;3740;50.700;7.184;2023-07-20T13:13:06;30.80;68.30
7399;DHT22;3740;50.700;7.184;2023-07-20T13:15:40;30.40;65.20
7399;DHT22;3740;50.700;7.184;2023-07-20T13:18:06;29.00;67.10
7399;DHT22;3740;50.700;7.184;2023-07-20T13:20:31;28.40;72.80
7399;DHT22;3740;50.700;7.184;2023-07-20T13:22:57;28.20;72.80
7399;DHT22;3740;50.700;7.184;2023-07-20T13:25:24;28.30;73.50
7399;DHT22;3740;50.700;7.184;2023-07-20T13:27:49;28.80;66.30
7399;DHT22;3740;50.700;7.184;2023-07-20T13:30:15;29.30;66.30
7399;DHT22;3740;50.700;7.184;2023-07-20T13:32:45;30.20;62.50
7399;DHT22;3740;50.700;7.184;2023-07-20T13:35:13;30.40;60.80
7399;DHT22;3740;50.700;7.184;2023-07-20T13:37:39;29.90;62.40
7399;DHT22;3740;50.700;7.184;2023-07-20T13:40:05;29.40;65.50
7399;DHT22;3740;50.700;7.184;2023-07-20T13:42:34;29.20;66.70
7399;DHT22;3740;50.700;7.184;2023-07-20T13:45:00;27.90;68.20
7399;DHT22;3740;50.700;7.184;2023-07-20T13:47:26;27.50;68.70
7399;DHT22;3740;50.700;7.184;2023-07-20T13:49:52;26.70;70.70
7399;DHT22;3740;50.700;7.184;2023-07-20T13:52:17;26.60;74.40
7399;DHT22;3740;50.700;7.184;2023-07-20T13:54:43;26.70;73.20
7399;DHT22;3740;50.700;7.184;2023-07-20T13:57:09;27.30;74.90
7399;DHT22;3740;50.700;7.184;2023-07-20T13:59:34;26.90;71.40
7399;DHT22;3740;50.700;7.184;2023-07-20T14:02:00;26.60;76.60
7399;DHT22;3740;50.700;7.184;2023-07-20T14:04:26;26.30;74.10
7399;DHT22;3740;50.700;7.184;2023-07-20T14:06:51;25.90;76.70
7399;DHT22;3740;50.700;7.184;2023-07-20T14:09:17;25.20;81.20
7399;DHT22;3740;50.700;7.184;2023-07-20T14:11:43;25.00;82.70
7399;DHT22;3740;50.700;7.184;2023-07-20T14:14:09;25.60;84.70
7399;DHT22;3740;50.700;7.184;2023-07-20T14:16:34;24.30;85.70
7399;DHT22;3740;50.700;7.184;2023-07-20T14:19:00;24.30;86.60
7399;DHT22;3740;50.700;7.184;2023-07-20T14:21:25;24.40;86.90
7399;DHT22;3740;50.700;7.184;2023-07-20T14:23:52;24.30;88.20
7399;DHT22;3740;50.700;7.184;2023-07-20T14:26:20;24.20;89.40
7399;DHT22;3740;50.700;7.184;2023-07-20T14:28:46;24.00;90.10
7399;DHT22;3740;50.700;7.184;2023-07-20T14:31:11;24.10;90.90
7399;DHT22;3740;50.700;7.184;2023-07-20T14:33:37;24.30;91.30
7399;DHT22;3740;50.700;7.184;2023-07-20T14:36:03;25.00;91.70
7399;DHT22;3740;50.700;7.184;2023-07-20T14:38:31;25.20;90.40
7399;DHT22;3740;50.700;7.184;2023-07-20T14:40:56;24.90;88.80
7399;DHT22;3740;50.700;7.184;2023-07-20T14:43:22;24.60;88.80
7399;DHT22;3740;50.700;7.184;2023-07-20T14:45:48;24.60;90.20
7399;DHT22;3740;50.700;7.184;2023-07-20T14:48:13;24.60;90.70
7399;DHT22;3740;50.700;7.184;2023-07-20T14:50:39;24.40;89.60
7399;DHT22;3740;50.700;7.184;2023-07-20T14:53:05;24.60;90.60
7399;DHT22;3740;50.700;7.184;2023-07-20T14:55:31;24.50;88.90
7399;DHT22;3740;50.700;7.184;2023-07-20T14:57:56;24.70;88.60
7399;DHT22;3740;50.700;7.184;2023-07-20T15:00:22;24.80;89.90
7399;DHT22;3740;50.700;7.184;2023-07-20T15:02:47;25.00;89.50
7399;DHT22;3740;50.700;7.184;2023-07-20T15:05:20;25.00;90.10
7399;DHT22;3740;50.700;7.184;2023-07-20T15:07:47;25.10;91.30
7399;DHT22;3740;50.700;7.184;2023-07-20T15:10:13;25.20;90.00
7399;DHT22;3740;50.700;7.184;2023-07-20T15:12:39;25.40;90.80
7399;DHT22;3740;50.700;7.184;2023-07-20T15:15:09;25.70;87.10
7399;DHT22;3740;50.700;7.184;2023-07-20T15:17:36;25.90;89.00
7399;DHT22;3740;50.700;7.184;2023-07-20T15:20:03;26.10;85.30
7399;DHT22;3740;50.700;7.184;2023-07-20T15:22:30;26.10;83.30
7399;DHT22;3740;50.700;7.184;2023-07-20T15:24:56;25.80;85.20
7399;DHT22;3740;50.700;7.184;2023-07-20T15:27:21;25.20;83.00
7399;DHT22;3740;50.700;7.184;2023-07-20T15:29:48;24.90;85.40
7399;DHT22;3740;50.700;7.184;2023-07-20T15:32:14;24.60;86.70
7399;DHT22;3740;50.700;7.184;2023-07-20T15:34:42;24.60;86.30
7399;DHT22;3740;50.700;7.184;2023-07-20T15:37:07;24.70;88.00
7399;DHT22;3740;50.700;7.184;2023-07-20T15:39:33;24.80;87.00
7399;DHT22;3740;50.700;7.184;2023-07-20T15:41:58;24.80;87.30
7399;DHT22;3740;50.700;7.184;2023-07-20T15:44:24;24.90;86.80
7399;DHT22;3740;50.700;7.184;2023-07-20T15:46:50;25.20;83.50
7399;DHT22;3740;50.700;7.184;2023-07-20T15:49:15;25.00;81.00
7399;DHT22;3740;50.700;7.184;2023-07-20T15:51:41;24.80;84.10
7399;DHT22;3740;50.700;7.184;2023-07-20T15:54:09;24.70;87.10
7399;DHT22;3740;50.700;7.184;2023-07-20T15:56:37;24.70;88.60
7399;DHT22;3740;50.700;7.184;2023-07-20T15:59:03;24.40;86.00
7399;DHT22;3740;50.700;7.184;2023-07-20T16:01:29;24.40;88.10
7399;DHT22;3740;50.700;7.184;2023-07-20T16:03:59;24.30;89.20
7399;DHT22;3740;50.700;7.184;2023-07-20T16:06:25;24.60;90.20
7399;DHT22;3740;50.700;7.184;2023-07-20T16:08:51;24.60;89.80
7399;DHT22;3740;50.700;7.184;2023-07-20T16:11:17;24.60;90.30